Time;durP1;ratioP1;P1;durP2;ratioP2;P2;SDS_P1;SDS_P2;PMS_P1;PMS_P2;Temp;Humidity;BMP_temperature;BMP_pressure;BME280_temperature;BME280_humidity;BME280_pressure;Samples;Min_cycle;Max_cycle;Signal;HPM_P1;HPM_P2
2021/04/06 00:00:18;;;;;;;3.30;0.70;;;6.60;54.70;;;;;;5092614;28;20027;-69
2021/04/06 00:02:49;;;;;;;1.27;0.55;;;6.60;54.20;;;;;;5074897;28;20050;-69
2021/04/06 00:05:17;;;;;;;1.98;0.50;;;6.60;54.50;;;;;;5096588;28;20016;-69
2021/04/06 00:07:45;;;;;;;2.70;1.15;;;6.60;54.40;;;;;;5096450;28;20396;-70
2021/04/06 00:10:20;;;;;;;1.55;0.60;;;6.60;54.70;;;;;;5087605;28;20027;-69
2021/04/06 00:12:49;;;;;;;1.70;0.60;;;6.60;54.80;;;;;;5076270;28;20070;-69
2021/04/06 00:15:17;;;;;;;2.60;0.60;;;6.60;54.70;;;;;;5074957;28;20099;-69
2021/04/06 00:17:44;;;;;;;2.75;0.82;;;6.60;54.60;;;;;;5057688;28;20032;-69
2021/04/06 00:20:12;;;;;;;1.35;0.63;;;6.60;54.10;;;;;;5095916;28;20461;-69
2021/04/06 00:22:39;;;;;;;3.47;1.30;;;6.60;54.10;;;;;;5096332;28;20104;-69
2021/04/06 00:25:10;;;;;;;2.92;0.93;;;6.60;54.20;;;;;;5096198;28;20020;-69
2021/04/06 00:27:41;;;;;;;3.88;1.63;;;6.50;54.20;;;;;;5096220;28;20023;-69
2021/04/06 00:30:13;;;;;;;1.73;0.60;;;6.50;54.30;;;;;;5096176;28;20020;-69
2021/04/06 00:32:39;;;;;;;2.42;0.65;;;6.50;54.40;;;;;;5077903;28;20048;-69
2021/04/06 00:35:07;;;;;;;1.70;0.50;;;6.50;54.00;;;;;;5077857;28;20016;-69
2021/04/06 00:37:45;;;;;;;1.90;0.75;;;6.50;53.90;;;;;;5095996;28;20392;-69
2021/04/06 00:40:13;;;;;;;12.45;0.80;;;6.40;53.70;;;;;;5096000;28;20426;-69
2021/04/06 00:42:40;;;;;;;3.58;0.55;;;6.40;54.10;;;;;;5095874;28;20024;-69
2021/04/06 00:45:12;;;;;;;4.70;0.70;;;6.30;54.00;;;;;;5077683;28;20399;-69
2021/04/06 00:47:39;;;;;;;1.73;0.50;;;6.30;54.00;;;;;;5077626;28;20024;-69
2021/04/06 00:50:13;;;;;;;1.23;0.60;;;6.30;54.20;;;;;;5095603;28;20039;-69
2021/04/06 00:52:46;;;;;;;3.35;0.70;;;6.20;53.70;;;;;;5096032;28;20022;-69
2021/04/06 00:55:19;;;;;;;1.75;0.60;;;6.20;53.60;;;;;;5095655;28;20103;-69
2021/04/06 00:57:46;;;;;;;2.55;0.60;;;6.20;53.60;;;;;;5095663;28;20099;-69
2021/04/06 01:00:25;;;;;;;4.30;0.80;;;6.20;53.40;;;;;;5077389;28;20024;-69
2021/04/06 01:03:02;;;;;;;0.93;0.30;;;6.10;52.60;;;;;;5095449;28;20024;-69
2021/04/06 01:05:31;;;;;;;3.00;0.70;;;6.00;52.30;;;;;;5095461;28;20028;-69
2021/04/06 01:07:57;;;;;;;1.73;0.60;;;6.00;52.40;;;;;;5095353;28;20526;-68
2021/04/06 01:10:27;;;;;;;4.00;0.70;;;6.00;52.20;;;;;;5095367;28;20077;-68
2021/04/06 01:12:54;;;;;;;2.95;0.73;;;5.90;52.10;;;;;;5095320;28;20024;-68
2021/04/06 01:15:23;;;;;;;3.35;0.70;;;5.90;52.40;;;;;;5095067;28;20481;-69
2021/04/06 01:17:48;;;;;;;2.55;0.52;;;5.80;52.30;;;;;;5095166;28;20035;-69
2021/04/06 01:20:16;;;;;;;2.33;0.60;;;5.80;52.40;;;;;;5077050;28;20024;-68
2021/04/06 01:22:47;;;;;;;0.52;0.38;;;5.70;52.10;;;;;;5095178;28;20495;-68
2021/04/06 01:25:25;;;;;;;2.42;0.75;;;5.70;52.40;;;;;;5095196;28;20462;-69
2021/04/06 01:28:03;;;;;;;2.72;0.60;;;5.60;52.50;;;;;;5076812;28;20020;-69
2021/04/06 01:30:43;;;;;;;2.55;0.65;;;5.60;52.30;;;;;;5094976;28;20027;-69
2021/04/06 01:33:11;;;;;;;3.97;0.57;;;5.60;52.60;;;;;;5094899;28;20016;-69
2021/04/06 01:35:37;;;;;;;1.38;0.65;;;5.60;52.80;;;;;;5094789;28;20021;-69
2021/04/06 01:38:04;;;;;;;3.10;0.65;;;5.50;52.60;;;;;;5094947;28;20051;-69
2021/04/06 01:40:30;;;;;;;1.75;0.52;;;5.50;52.80;;;;;;5094821;28;20028;-68
2021/04/06 01:42:56;;;;;;;1.30;0.45;;;5.50;53.10;;;;;;5094762;28;20024;-68
2021/04/06 01:45:23;;;;;;;0.55;0.40;;;5.50;53.20;;;;;;5094765;28;20027;-68
2021/04/06 01:47:49;;;;;;;2.15;0.60;;;5.50;53.40;;;;;;5094611;28;20016;-68
2021/04/06 01:50:15;;;;;;;2.70;0.93;;;5.50;54.30;;;;;;5094448;28;20044;-68
2021/04/06 01:52:48;;;;;;;1.98;0.43;;;5.50;53.90;;;;;;5076408;28;20016;-69
2021/04/06 01:55:18;;;;;;;0.60;0.50;;;5.50;54.50;;;;;;5094589;28;20026;-68
2021/04/06 01:57:47;;;;;;;0.88;0.43;;;5.50;53.90;;;;;;5094558;28;20103;-69
2021/04/06 02:00:49;;;;;;;1.40;0.50;;;5.50;53.80;;;;;;5094486;28;20028;-68
2021/04/06 02:03:05;;;;;;;2.30;0.90;;;5.50;53.90;;;;;;5090070;28;20123;-68
2021/04/06 02:05:31;;;;;;;2.50;0.98;;;5.60;53.90;;;;;;5075482;28;20024;-68
2021/04/06 02:08:07;;;;;;;1.15;0.60;;;5.50;54.20;;;;;;5093688;28;20104;-68
2021/04/06 02:10:34;;;;;;;2.30;0.65;;;5.60;54.30;;;;;;5093820;28;20077;-68
2021/04/06 02:13:09;;;;;;;0.70;0.60;;;5.50;54.50;;;;;;5076099;28;20023;-69
2021/04/06 02:15:35;;;;;;;1.13;0.65;;;5.60;54.50;;;;;;5075860;28;20016;-69
2021/04/06 02:18:01;;;;;;;1.38;0.70;;;5.60;54.50;;;;;;5094137;28;20020;-68
2021/04/06 02:20:27;;;;;;;0.80;0.40;;;5.60;54.40;;;;;;5094111;28;20035;-68
2021/04/06 02:22:58;;;;;;;2.55;0.88;;;5.60;54.60;;;;;;5094031;28;20019;-67
2021/04/06 02:25:25;;;;;;;1.33;0.70;;;5.60;54.70;;;;;;5093529;28;20505;-68
2021/04/06 02:27:51;;;;;;;3.03;1.05;;;5.70;54.80;;;;;;5075573;28;20115;-67
2021/04/06 02:30:18;;;;;;;1.92;0.60;;;5.70;54.90;;;;;;5075639;28;20426;-68
2021/04/06 02:32:43;;;;;;;1.00;0.60;;;5.70;54.80;;;;;;5093809;28;20012;-68
2021/04/06 02:35:12;;;;;;;3.15;0.70;;;5.70;54.70;;;;;;5075831;28;20043;-68
2021/04/06 02:37:42;;;;;;;2.28;0.88;;;5.80;54.40;;;;;;5093709;28;20028;-68
2021/04/06 02:40:16;;;;;;;1.58;0.77;;;5.80;54.40;;;;;;5093735;28;20012;-68
2021/04/06 02:42:44;;;;;;;1.52;0.50;;;5.80;54.50;;;;;;5093623;28;20024;-68
2021/04/06 02:45:15;;;;;;;1.38;0.70;;;5.80;54.60;;;;;;5093631;28;20454;-68
2021/04/06 02:47:51;;;;;;;3.25;1.05;;;5.80;54.50;;;;;;5093518;28;20501;-68
2021/04/06 02:50:25;;;;;;;1.20;0.82;;;5.70;54.60;;;;;;5092644;28;20024;-68
2021/04/06 02:52:51;;;;;;;;;;;5.70;54.50;;;;;;5093082;28;20028;-67
2021/04/06 02:55:18;;;;;;;3.05;1.00;;;5.70;54.00;;;;;;5092657;28;20380;-67
2021/04/06 02:57:46;;;;;;;4.20;1.08;;;5.70;54.50;;;;;;5092482;28;20149;-68
2021/04/06 03:00:27;;;;;;;7.43;1.35;;;5.60;54.70;;;;;;5074354;28;20020;-68
2021/04/06 03:03:17;;;;;;;2.10;1.05;;;5.50;54.50;;;;;;5092486;28;20469;-67
2021/04/06 03:05:44;;;;;;;4.80;1.50;;;5.50;54.90;;;;;;5074360;28;20115;-67
2021/04/06 03:08:10;;;;;;;3.95;1.20;;;5.50;55.10;;;;;;5092260;28;20080;-68
2021/04/06 03:10:36;;;;;;;2.55;1.13;;;5.50;55.20;;;;;;5092344;28;20102;-67
2021/04/06 03:13:24;;;;;;;2.65;1.10;;;5.40;55.10;;;;;;5092370;28;20510;-67
2021/04/06 03:15:51;;;;;;;3.63;1.27;;;5.40;54.90;;;;;;5092230;28;20571;-67
2021/04/06 03:18:17;;;;;;;2.95;1.50;;;5.40;54.40;;;;;;5074156;28;20657;-67
2021/04/06 03:20:43;;;;;;;4.93;1.58;;;5.40;54.40;;;;;;5092200;28;20024;-67
2021/04/06 03:23:10;;;;;;;5.82;1.70;;;5.30;54.20;;;;;;5092070;28;20089;-67
2021/04/06 03:25:37;;;;;;;7.63;2.05;;;5.30;54.10;;;;;;5092133;28;20027;-67
2021/04/06 03:28:07;;;;;;;5.53;2.28;;;5.20;54.30;;;;;;5073854;28;20028;-67
2021/04/06 03:30:36;;;;;;;6.90;2.60;;;5.20;54.30;;;;;;5091889;28;20032;-67
2021/04/06 03:33:04;;;;;;;4.70;2.30;;;5.20;54.30;;;;;;5092060;28;20087;-67
2021/04/06 03:35:32;;;;;;;5.20;2.67;;;5.10;54.10;;;;;;5073646;28;20056;-67
2021/04/06 03:38:00;;;;;;;4.50;2.72;;;5.10;54.40;;;;;;5072490;28;20020;-67
2021/04/06 03:40:37;;;;;;;9.40;3.28;;;5.00;54.30;;;;;;5091952;28;20024;-67
2021/04/06 03:43:11;;;;;;;4.32;2.75;;;5.00;54.40;;;;;;5091868;28;20070;-67
2021/04/06 03:45:59;;;;;;;9.13;3.47;;;5.00;54.70;;;;;;5091873;28;20020;-67
2021/04/06 03:48:27;;;;;;;7.65;4.25;;;5.00;54.90;;;;;;5065590;28;744771;-67
2021/04/06 03:50:54;;;;;;;5.18;2.97;;;5.00;55.20;;;;;;5092621;28;20028;-67
2021/04/06 03:53:21;;;;;;;8.15;2.67;;;5.00;55.10;;;;;;5092654;28;20435;-67
2021/04/06 03:56:12;;;;;;;6.82;3.10;;;5.00;55.00;;;;;;5074441;28;20466;-66
2021/04/06 03:58:42;;;;;;;6.63;2.80;;;5.10;55.20;;;;;;5092706;28;20028;-67
2021/04/06 04:01:11;;;;;;;7.07;3.05;;;5.10;55.30;;;;;;5092452;28;20144;-67
2021/04/06 04:03:38;;;;;;;6.85;3.05;;;5.20;55.60;;;;;;5060281;28;20108;-67
2021/04/06 04:06:04;;;;;;;5.82;2.60;;;5.20;55.50;;;;;;5072192;28;20149;-67
2021/04/06 04:08:31;;;;;;;5.43;2.70;;;5.30;55.80;;;;;;5071715;28;20021;-67
2021/04/06 04:10:56;;;;;;;3.28;2.60;;;5.30;55.80;;;;;;5071876;28;20028;-66
2021/04/06 04:13:22;;;;;;;7.65;2.95;;;5.30;55.70;;;;;;5082220;28;20076;-67
2021/04/06 04:15:48;;;;;;;5.95;2.55;;;5.30;55.50;;;;;;5092447;28;20016;-67
2021/04/06 04:18:14;;;;;;;3.05;2.45;;;5.30;55.40;;;;;;5092386;28;20097;-66
2021/04/06 04:20:42;;;;;;;8.55;2.80;;;5.30;55.30;;;;;;5092407;28;20020;-66
2021/04/06 04:23:07;;;;;;;4.70;2.50;;;5.30;55.20;;;;;;5092331;28;20054;-67
2021/04/06 04:25:33;;;;;;;7.85;3.45;;;5.20;55.10;;;;;;5092310;28;20121;-66
2021/04/06 04:27:59;;;;;;;9.57;3.45;;;5.20;55.20;;;;;;5073876;28;20024;-67
2021/04/06 04:30:39;;;;;;;7.85;2.95;;;5.10;54.90;;;;;;5092247;28;20146;-66
2021/04/06 04:33:09;;;;;;;6.85;3.55;;;5.10;54.80;;;;;;5092303;28;20015;-66
2021/04/06 04:35:36;;;;;;;5.82;3.17;;;5.00;54.70;;;;;;5092094;28;20016;-66
2021/04/06 04:38:03;;;;;;;4.05;2.85;;;4.90;54.80;;;;;;5074158;28;20062;-66
2021/04/06 04:40:29;;;;;;;5.13;2.58;;;4.80;54.90;;;;;;5092139;28;20461;-66
2021/04/06 04:42:55;;;;;;;7.15;2.80;;;4.70;55.10;;;;;;5092041;28;20128;-66
2021/04/06 04:45:22;;;;;;;6.25;2.92;;;4.70;55.30;;;;;;5092094;28;20032;-66
2021/04/06 04:47:48;;;;;;;5.40;3.17;;;4.60;55.30;;;;;;5092087;28;20373;-66
2021/04/06 04:50:15;;;;;;;6.72;3.17;;;4.60;55.20;;;;;;5094568;28;20056;-66
2021/04/06 04:52:45;;;;;;;5.85;2.97;;;4.60;55.40;;;;;;5095634;28;20472;-66
2021/04/06 04:55:13;;;;;;;8.27;2.92;;;4.50;55.50;;;;;;5095551;28;20104;-66
2021/04/06 04:57:39;;;;;;;6.60;3.00;;;4.50;55.30;;;;;;5095580;28;20066;-66
2021/04/06 05:00:06;;;;;;;7.00;3.00;;;4.50;55.50;;;;;;5095570;28;20020;-66
2021/04/06 05:02:32;;;;;;;6.90;2.83;;;4.50;55.60;;;;;;5095356;28;20023;-65
2021/04/06 05:04:58;;;;;;;7.60;3.13;;;4.50;55.40;;;;;;5095464;28;20020;-65
2021/04/06 05:07:24;;;;;;;7.93;3.80;;;4.40;55.40;;;;;;5095532;28;20047;-66
2021/04/06 05:09:50;;;;;;;9.48;3.80;;;4.50;55.70;;;;;;5095381;28;20483;-65
2021/04/06 05:12:17;;;;;;;11.32;3.22;;;4.50;55.70;;;;;;5095218;28;20016;-66
2021/04/06 05:14:44;;;;;;;10.57;3.60;;;4.50;55.90;;;;;;5095257;28;20366;-66
2021/04/06 05:17:10;;;;;;;8.52;3.47;;;4.60;56.00;;;;;;5095299;28;20150;-65
2021/04/06 05:19:36;;;;;;;7.60;3.05;;;4.70;56.30;;;;;;5095228;28;20103;-66
2021/04/06 05:22:01;;;;;;;8.10;3.83;;;4.80;56.40;;;;;;5094914;28;20409;-65
2021/04/06 05:24:27;;;;;;;7.38;3.25;;;4.90;56.00;;;;;;5095039;28;20043;-66
2021/04/06 05:26:53;;;;;;;5.30;3.15;;;4.90;55.80;;;;;;5095134;28;20026;-65
2021/04/06 05:29:19;;;;;;;11.85;5.30;;;5.00;55.50;;;;;;5094828;28;20385;-66
2021/04/06 05:31:44;;;;;;;9.80;3.25;;;5.10;55.40;;;;;;5094892;28;20020;-65
2021/04/06 05:34:10;;;;;;;6.80;3.08;;;5.20;55.50;;;;;;5094854;28;20028;-65
2021/04/06 05:36:36;;;;;;;10.07;3.60;;;5.20;55.10;;;;;;5094661;28;20020;-65
2021/04/06 05:39:02;;;;;;;10.20;3.55;;;5.30;54.90;;;;;;5094430;28;20028;-66
2021/04/06 05:41:28;;;;;;;12.25;4.07;;;5.30;54.50;;;;;;5076302;28;20111;-66
2021/04/06 05:44:02;;;;;;;7.10;3.20;;;5.40;54.20;;;;;;5094480;28;20030;-65
2021/04/06 05:46:34;;;;;;;;;;;5.50;54.10;;;;;;5095007;28;20028;-65
2021/04/06 05:49:02;;;;;;;7.07;3.08;;;5.50;54.00;;;;;;5094076;28;19920;-66
2021/04/06 05:51:29;;;;;;;4.95;2.92;;;5.60;54.20;;;;;;5076339;28;20024;-65
2021/04/06 05:53:55;;;;;;;7.97;3.28;;;5.80;54.00;;;;;;5094406;28;20384;-65
2021/04/06 05:56:21;;;;;;;10.48;3.17;;;5.80;53.90;;;;;;5094306;28;20095;-65
2021/04/06 05:58:47;;;;;;;6.65;3.65;;;5.90;54.00;;;;;;5094150;28;20108;-65
2021/04/06 06:01:13;;;;;;;7.88;3.58;;;6.00;53.50;;;;;;5074788;28;20469;-65
2021/04/06 06:03:39;;;;;;;5.07;3.05;;;6.10;53.50;;;;;;5091675;28;20066;-65
2021/04/06 06:06:05;;;;;;;7.60;3.28;;;6.10;52.60;;;;;;5075483;28;20135;-66
2021/04/06 06:08:31;;;;;;;6.90;3.00;;;6.10;52.70;;;;;;5093117;28;20104;-65
2021/04/06 06:11:06;;;;;;;5.88;3.08;;;6.20;52.50;;;;;;5093431;28;20076;-65
2021/04/06 06:13:35;;;;;;;10.57;3.08;;;6.20;52.20;;;;;;5075615;28;20350;-65
2021/04/06 06:16:16;;;;;;;6.63;3.35;;;6.20;52.60;;;;;;5094043;28;20630;-65
2021/04/06 06:18:58;;;;;;;5.57;2.80;;;6.30;52.50;;;;;;5094106;28;20047;-65
2021/04/06 06:21:44;;;;;;;6.35;2.85;;;6.40;52.70;;;;;;5093971;28;20043;-65
2021/04/06 06:24:31;;;;;;;7.43;3.15;;;6.50;52.60;;;;;;5065328;28;20036;-65
2021/04/06 06:26:58;;;;;;;5.00;2.90;;;6.50;51.40;;;;;;5093940;28;20034;-65
2021/04/06 06:29:28;;;;;;;8.65;3.05;;;6.50;51.40;;;;;;5093676;28;20090;-65
2021/04/06 06:31:58;;;;;;;4.13;2.88;;;6.50;51.50;;;;;;5093688;28;20031;-65
2021/04/06 06:34:28;;;;;;;5.28;3.17;;;6.60;51.80;;;;;;5093840;28;20023;-66
2021/04/06 06:37:27;;;;;;;7.18;3.10;;;6.60;51.60;;;;;;5093502;28;20024;-65
2021/04/06 06:39:52;;;;;;;10.23;3.78;;;6.60;51.60;;;;;;5093539;28;20027;-65
2021/04/06 06:42:20;;;;;;;6.20;3.22;;;6.70;51.80;;;;;;5093631;28;20016;-65
2021/04/06 06:44:46;;;;;;;5.03;2.80;;;6.80;51.80;;;;;;5093560;28;20035;-65
2021/04/06 06:47:29;;;;;;;5.63;2.88;;;6.80;51.70;;;;;;5093641;28;20422;-65
2021/04/06 06:50:05;;;;;;;7.78;3.60;;;6.80;51.70;;;;;;5089620;28;20048;-65
2021/04/06 06:52:32;;;;;;;5.97;3.10;;;6.80;50.90;;;;;;5082441;28;20028;-65
2021/04/06 06:55:15;;;;;;;6.53;3.13;;;6.80;51.10;;;;;;5093184;28;20016;-65
2021/04/06 06:57:42;;;;;;;9.02;3.05;;;6.80;51.70;;;;;;5093288;28;20059;-65
2021/04/06 07:00:18;;;;;;;8.05;2.72;;;6.80;51.60;;;;;;5082596;28;20419;-65
2021/04/06 07:02:44;;;;;;;5.93;3.17;;;6.80;51.70;;;;;;5075593;28;21465;-64
2021/04/06 07:05:22;;;;;;;6.55;3.13;;;6.90;52.00;;;;;;5087619;28;20024;-65
2021/04/06 07:07:54;;;;;;;7.57;2.80;;;6.90;51.30;;;;;;5057186;28;20070;-66
2021/04/06 07:10:23;;;;;;;11.20;3.55;;;6.90;51.30;;;;;;5092509;28;20027;-66
2021/04/06 07:13:19;;;;;;;7.30;3.20;;;6.90;50.80;;;;;;5065392;28;20025;-66
2021/04/06 07:15:46;;;;;;;3.80;2.60;;;6.90;50.70;;;;;;5050565;28;20485;-66
2021/04/06 07:18:18;;;;;;;4.47;2.40;;;7.00;50.80;;;;;;5067627;28;20119;-66
2021/04/06 07:20:51;;;;;;;6.30;2.63;;;7.00;51.10;;;;;;5073240;28;20028;-66
2021/04/06 07:23:39;;;;;;;5.35;2.80;;;7.00;51.30;;;;;;5088901;28;20107;-65
2021/04/06 07:26:11;;;;;;;4.07;2.65;;;7.10;51.10;;;;;;5092499;28;20024;-65
2021/04/06 07:28:38;;;;;;;4.95;2.70;;;7.10;50.70;;;;;;5093079;28;20024;-65
2021/04/06 07:31:06;;;;;;;6.30;2.83;;;7.20;49.70;;;;;;5088623;28;20034;-66
2021/04/06 07:33:32;;;;;;;11.65;2.97;;;7.20;49.20;;;;;;5093331;28;20129;-65
2021/04/06 07:36:06;;;;;;;6.10;2.58;;;7.20;49.40;;;;;;5092909;28;20020;-65
2021/04/06 07:38:35;;;;;;;5.82;3.05;;;7.30;48.70;;;;;;5093708;28;20032;-65
2021/04/06 07:41:02;;;;;;;4.53;2.40;;;7.40;49.80;;;;;;5093385;28;20024;-65
2021/04/06 07:43:29;;;;;;;4.30;2.60;;;7.40;50.00;;;;;;5093104;28;20396;-65
2021/04/06 07:45:55;;;;;;;9.80;2.80;;;7.50;50.20;;;;;;5074811;28;20028;-65
2021/04/06 07:48:49;;;;;;;8.52;3.35;;;7.70;49.90;;;;;;5092406;28;20051;-65
2021/04/06 07:51:18;;;;;;;5.88;2.80;;;7.70;49.40;;;;;;5072578;28;20036;-65
2021/04/06 07:54:02;;;;;;;4.82;2.25;;;7.80;48.60;;;;;;5082668;28;20031;-66
2021/04/06 07:56:46;;;;;;;6.30;2.60;;;7.90;48.60;;;;;;5075084;28;20027;-65
2021/04/06 07:59:18;;;;;;;4.63;2.20;;;7.90;47.50;;;;;;5078944;28;20027;-64
2021/04/06 08:02:04;;;;;;;7.20;2.17;;;8.00;48.00;;;;;;5084466;28;20342;-65
2021/04/06 08:04:45;;;;;;;7.85;3.38;;;8.00;46.90;;;;;;5075869;28;20398;-65
2021/04/06 08:07:20;;;;;;;11.50;2.50;;;8.00;46.90;;;;;;5077217;28;20012;-65
2021/04/06 08:09:46;;;;;;;8.10;2.35;;;8.00;47.00;;;;;;5091199;28;20024;-66
2021/04/06 08:12:24;;;;;;;4.45;1.95;;;7.90;46.50;;;;;;5092163;28;20522;-66
2021/04/06 08:15:05;;;;;;;5.43;2.00;;;8.00;46.80;;;;;;5086601;28;20027;-77
2021/04/06 08:17:30;;;;;;;4.43;2.30;;;7.90;45.10;;;;;;5091508;28;20397;-69
2021/04/06 08:20:08;;;;;;;5.80;2.03;;;7.90;46.40;;;;;;5091169;28;20036;-71
2021/04/06 08:22:43;;;;;;;4.45;2.25;;;8.00;46.10;;;;;;5073090;28;20097;-70
2021/04/06 08:25:21;;;;;;;8.45;2.25;;;8.00;45.30;;;;;;5074432;28;20024;-67
2021/04/06 08:27:49;;;;;;;4.68;2.42;;;8.00;46.00;;;;;;5075613;28;20024;-74
2021/04/06 08:30:27;;;;;;;6.18;2.38;;;8.10;45.70;;;;;;5075927;28;20025;-69
2021/04/06 08:32:59;;;;;;;5.80;2.47;;;8.10;44.80;;;;;;5079382;28;20020;-73
2021/04/06 08:35:49;;;;;;;5.72;2.30;;;8.10;44.80;;;;;;5087236;28;20027;-75
2021/04/06 08:38:25;;;;;;;7.43;2.38;;;8.10;44.50;;;;;;5057813;28;20470;-68
2021/04/06 08:41:01;;;;;;;12.45;2.30;;;8.10;45.00;;;;;;5075707;28;20037;-69
2021/04/06 08:43:32;;;;;;;7.65;2.17;;;8.10;45.80;;;;;;5075388;28;20025;-73
2021/04/06 08:46:05;;;;;;;6.38;2.17;;;8.20;46.50;;;;;;5075313;28;20036;-71
2021/04/06 08:48:46;;;;;;;3.55;1.55;;;8.30;46.10;;;;;;5075292;28;20120;-69
2021/04/06 08:51:31;;;;;;;9.73;3.10;;;8.40;46.80;;;;;;5075383;28;20016;-72
2021/04/06 08:54:08;;;;;;;4.85;1.73;;;8.60;46.00;;;;;;5075204;28;20029;-73
2021/04/06 08:56:37;;;;;;;9.23;2.92;;;8.60;44.90;;;;;;5075608;28;20016;-76
2021/04/06 08:59:20;;;;;;;5.57;2.30;;;8.60;43.80;;;;;;5075202;28;20485;-67
2021/04/06 09:01:58;;;;;;;4.05;1.45;;;8.60;44.00;;;;;;5075320;28;20036;-74
2021/04/06 09:04:26;;;;;;;5.25;1.98;;;8.60;43.70;;;;;;5057300;28;20032;-77
2021/04/06 09:06:53;;;;;;;9.13;2.38;;;8.50;43.40;;;;;;5089155;28;20477;-74
2021/04/06 09:09:31;;;;;;;4.43;1.80;;;8.40;43.90;;;;;;5092245;28;20020;-71
2021/04/06 09:12:00;;;;;;;8.55;1.60;;;8.40;44.40;;;;;;5075043;28;20492;-78
2021/04/06 09:14:30;;;;;;;3.45;2.00;;;8.40;44.60;;;;;;5075707;28;20024;-76
2021/04/06 09:16:56;;;;;;;7.82;2.55;;;8.30;45.20;;;;;;5077011;28;20027;-70
2021/04/06 09:19:24;;;;;;;4.97;1.73;;;8.30;44.80;;;;;;5095166;28;20024;-72
2021/04/06 09:21:55;;;;;;;4.18;1.70;;;8.30;45.30;;;;;;5094878;28;20028;-79
2021/04/06 09:24:23;;;;;;;6.13;1.73;;;8.20;46.10;;;;;;5076577;28;20468;-69
2021/04/06 09:26:51;;;;;;;3.80;1.75;;;8.20;45.80;;;;;;5074780;28;20389;-66
2021/04/06 09:29:19;;;;;;;6.07;1.92;;;8.10;45.80;;;;;;5074756;28;20071;-78
2021/04/06 09:31:48;;;;;;;3.53;1.70;;;7.90;45.30;;;;;;5056854;28;20111;-78
2021/04/06 09:34:28;;;;;;;6.80;1.75;;;7.80;46.30;;;;;;5074617;28;20128;-71
2021/04/06 09:37:06;;;;;;;8.00;2.08;;;7.70;46.50;;;;;;5074524;28;20103;-82
2021/04/06 09:39:33;;;;;;;4.38;1.63;;;7.70;47.20;;;;;;5078745;28;20482;-73
2021/04/06 09:42:00;;;;;;;2.67;1.63;;;7.70;46.80;;;;;;5094825;28;20035;-76
2021/04/06 09:44:28;;;;;;;8.02;2.03;;;7.70;47.10;;;;;;5088888;28;20021;-68
2021/04/06 09:47:05;;;;;;;8.57;1.92;;;7.60;47.30;;;;;;5082687;28;20035;-73
2021/04/06 09:49:33;;;;;;;3.85;1.75;;;7.60;47.50;;;;;;5082075;28;20127;-70
2021/04/06 09:52:01;;;;;;;5.80;1.88;;;7.60;47.60;;;;;;5094328;28;20020;-79
2021/04/06 09:54:30;;;;;;;7.45;2.20;;;7.60;47.80;;;;;;5091053;28;20069;-82
2021/04/06 09:56:57;;;;;;;10.05;1.80;;;7.60;47.90;;;;;;5064303;28;20053;-81
2021/04/06 09:59:24;;;;;;;4.47;1.70;;;7.60;47.60;;;;;;5087646;28;20033;-79
2021/04/06 10:01:51;;;;;;;6.18;2.38;;;7.60;47.90;;;;;;5092565;28;20028;-72
2021/04/06 10:04:35;;;;;;;5.68;1.90;;;7.60;47.80;;;;;;5093026;28;20024;-72
2021/04/06 10:07:06;;;;;;;5.50;1.90;;;7.50;47.90;;;;;;5062614;28;20413;-77
2021/04/06 10:09:34;;;;;;;5.10;1.80;;;7.60;48.30;;;;;;5072357;28;20038;-74
2021/04/06 10:12:01;;;;;;;6.45;1.90;;;7.70;47.90;;;;;;5071996;28;20020;-72
2021/04/06 10:14:27;;;;;;;6.30;2.60;;;7.60;47.90;;;;;;5053927;28;20020;-78
2021/04/06 10:17:05;;;;;;;3.38;1.77;;;7.60;47.40;;;;;;5080458;28;20028;-69
2021/04/06 10:19:34;;;;;;;7.30;2.67;;;7.60;47.60;;;;;;5073703;28;20487;-69
2021/04/06 10:22:05;;;;;;;5.30;1.60;;;7.60;47.50;;;;;;5090416;28;20071;-74
2021/04/06 10:24:33;;;;;;;7.00;2.20;;;7.60;47.10;;;;;;5091971;28;20048;-71
2021/04/06 10:27:22;;;;;;;4.38;1.90;;;7.60;47.70;;;;;;5071532;28;20032;-67
2021/04/06 10:30:02;;;;;;;4.80;1.85;;;7.50;47.70;;;;;;5071343;28;20039;-73
2021/04/06 10:32:48;;;;;;;4.15;1.60;;;7.60;48.70;;;;;;5071296;28;20090;-75
2021/04/06 10:35:25;;;;;;;7.90;2.08;;;7.70;49.30;;;;;;5053422;28;20025;-72
2021/04/06 10:37:54;;;;;;;7.07;2.10;;;7.80;49.10;;;;;;5053251;28;20056;-75
2021/04/06 10:40:29;;;;;;;5.60;1.88;;;8.00;48.60;;;;;;5053319;28;20024;-72
2021/04/06 10:43:00;;;;;;;3.25;1.85;;;8.10;48.90;;;;;;5071415;28;20033;-74
2021/04/06 10:45:28;;;;;;;10.60;3.25;;;8.20;48.90;;;;;;5073198;28;20025;-81
2021/04/06 10:48:10;;;;;;;6.07;1.70;;;8.30;47.50;;;;;;5090405;28;20073;-68
2021/04/06 10:50:40;;;;;;;6.18;1.80;;;8.40;47.60;;;;;;5081163;28;20021;-78
2021/04/06 10:53:44;;;;;;;5.85;1.80;;;8.50;46.90;;;;;;5081664;28;20031;-80
2021/04/06 10:56:23;;;;;;;3.35;1.70;;;8.60;46.40;;;;;;5068663;28;20062;-70
2021/04/06 10:58:56;;;;;;;4.47;1.60;;;8.60;45.60;;;;;;5089718;28;20458;-72
2021/04/06 11:01:25;;;;;;;7.35;2.15;;;8.60;45.50;;;;;;5085445;28;20032;-74
2021/04/06 11:03:58;;;;;;;4.07;1.80;;;8.60;45.50;;;;;;5091570;28;20028;-74
2021/04/06 11:06:33;;;;;;;3.88;1.77;;;8.70;46.00;;;;;;5060050;28;20432;-75
2021/04/06 11:09:09;;;;;;;5.72;1.33;;;8.70;45.20;;;;;;5072273;28;20025;-74
2021/04/06 11:11:35;;;;;;;3.95;1.90;;;8.80;45.10;;;;;;5082117;28;20028;-71
2021/04/06 11:14:07;;;;;;;4.03;1.60;;;8.90;45.80;;;;;;5088441;28;20070;-70
2021/04/06 11:16:35;;;;;;;5.47;2.40;;;9.00;46.70;;;;;;5077501;28;20070;-78
2021/04/06 11:19:15;;;;;;;7.20;2.13;;;9.10;46.40;;;;;;5071976;28;20020;-76
2021/04/06 11:21:47;;;;;;;2.55;1.17;;;9.30;46.50;;;;;;5079422;28;20107;-78
2021/04/06 11:24:15;;;;;;;3.67;1.80;;;9.40;46.60;;;;;;5091944;28;20107;-74
2021/04/06 11:26:41;;;;;;;6.05;1.70;;;9.50;45.30;;;;;;5080624;28;20481;-82
2021/04/06 11:29:10;;;;;;;9.52;1.63;;;9.50;44.60;;;;;;5091965;28;20747;-76
2021/04/06 11:31:37;;;;;;;3.60;1.88;;;9.50;44.90;;;;;;5091518;28;20016;-74
2021/04/06 11:34:05;;;;;;;6.53;1.98;;;9.50;44.70;;;;;;5092184;28;20023;-70
2021/04/06 11:36:31;;;;;;;6.45;1.67;;;9.50;45.10;;;;;;5079067;28;20330;-77
2021/04/06 11:38:57;;;;;;;3.10;1.27;;;9.50;45.30;;;;;;5090930;28;20028;-73
2021/04/06 11:41:23;;;;;;;2.92;1.63;;;9.50;45.00;;;;;;5091772;28;20027;-77
2021/04/06 11:43:49;;;;;;;4.47;1.50;;;9.40;44.00;;;;;;5069542;28;20024;-83
2021/04/06 11:46:16;;;;;;;6.43;1.80;;;9.30;44.60;;;;;;5082569;28;20028;-74
2021/04/06 11:48:43;;;;;;;6.25;1.90;;;9.20;45.50;;;;;;5065425;28;20453;-82
2021/04/06 11:51:11;;;;;;;3.80;2.10;;;9.20;46.30;;;;;;5089268;28;20489;-70
2021/04/06 11:53:37;;;;;;;5.57;2.20;;;9.10;46.90;;;;;;5080968;28;20020;-67
2021/04/06 11:56:03;;;;;;;6.97;2.08;;;9.10;46.50;;;;;;5087446;28;20023;-70
2021/04/06 11:58:28;;;;;;;3.80;1.80;;;9.10;46.70;;;;;;5083149;28;20103;-71
2021/04/06 12:00:54;;;;;;;6.25;1.63;;;9.10;46.50;;;;;;5095461;28;20020;-78
2021/04/06 12:03:20;;;;;;;4.70;1.83;;;9.20;47.00;;;;;;5093423;28;20024;-75
2021/04/06 12:05:46;;;;;;;6.03;1.88;;;9.30;46.60;;;;;;5095235;28;20073;-74
2021/04/06 12:08:11;;;;;;;3.72;1.75;;;9.40;46.40;;;;;;5076453;28;20431;-73
2021/04/06 12:10:37;;;;;;;6.90;2.15;;;9.50;45.80;;;;;;5075147;28;20035;-70
2021/04/06 12:13:04;;;;;;;6.90;1.88;;;9.60;45.40;;;;;;5075061;28;20107;-74
2021/04/06 12:15:29;;;;;;;3.17;1.65;;;9.70;44.90;;;;;;5074863;28;20102;-74
2021/04/06 12:17:55;;;;;;;5.35;1.80;;;9.70;45.70;;;;;;5075054;28;20056;-74
2021/04/06 12:20:21;;;;;;;6.55;2.28;;;9.60;45.40;;;;;;5076581;28;20032;-77
2021/04/06 12:22:47;;;;;;;5.15;2.05;;;9.40;45.00;;;;;;5074935;28;20035;-69
2021/04/06 12:25:14;;;;;;;3.65;1.48;;;9.30;45.50;;;;;;5075211;28;20092;-67
2021/04/06 12:27:39;;;;;;;3.45;1.85;;;9.20;45.90;;;;;;5094512;28;20012;-64
2021/04/06 12:30:07;;;;;;;3.88;1.73;;;9.00;46.70;;;;;;5094886;28;20026;-65
2021/04/06 12:32:32;;;;;;;5.75;2.33;;;8.90;47.70;;;;;;5076413;28;20024;-71
2021/04/06 12:34:59;;;;;;;5.65;2.03;;;8.80;48.30;;;;;;5094936;28;20028;-64
2021/04/06 12:37:26;;;;;;;4.30;1.88;;;8.60;48.80;;;;;;5076410;28;20462;-66
2021/04/06 12:39:51;;;;;;;12.50;2.22;;;8.40;49.50;;;;;;5074581;28;20104;-73
2021/04/06 12:42:17;;;;;;;4.65;1.95;;;8.20;52.80;;;;;;5074469;28;20048;-72
2021/04/06 12:44:43;;;;;;;2.00;1.33;;;7.90;52.30;;;;;;5083815;28;20031;-65
2021/04/06 12:47:09;;;;;;;1.65;1.35;;;7.70;52.50;;;;;;5090313;28;20039;-64
2021/04/06 12:49:35;;;;;;;3.35;1.65;;;7.60;53.00;;;;;;5060826;28;20488;-68
2021/04/06 12:52:01;;;;;;;4.45;2.22;;;7.50;53.90;;;;;;5075628;28;20036;-71
2021/04/06 12:54:27;;;;;;;2.50;1.40;;;7.40;55.00;;;;;;5078322;28;20091;-72
2021/04/06 12:56:53;;;;;;;2.75;1.58;;;7.40;55.10;;;;;;5091373;28;20589;-72
2021/04/06 12:59:19;;;;;;;4.47;2.35;;;7.50;55.00;;;;;;5074401;28;20032;-70
2021/04/06 13:01:45;;;;;;;4.13;2.47;;;7.50;55.40;;;;;;5089763;28;20077;-72
2021/04/06 13:04:11;;;;;;;4.32;2.00;;;7.50;55.30;;;;;;5073826;28;20099;-72
2021/04/06 13:06:37;;;;;;;6.00;1.98;;;7.50;54.90;;;;;;5073521;28;20032;-75
2021/04/06 13:09:04;;;;;;;3.97;1.58;;;7.40;55.50;;;;;;5074081;28;20067;-74
2021/04/06 13:11:31;;;;;;;4.40;1.75;;;7.40;56.30;;;;;;5073587;28;20035;-72
2021/04/06 13:14:01;;;;;;;1.58;1.30;;;7.40;57.40;;;;;;5059641;28;20016;-72